Time;durP1;ratioP1;P1;durP2;ratioP2;P2;SDS_P1;SDS_P2;PMS_P1;PMS_P2;Temp;Humidity;BMP_temperature;BMP_pressure;BME280_temperature;BME280_humidity;BME280_pressure;Samples;Min_cycle;Max_cycle;Signal;HPM_P1;HPM_P2
2022/05/14 00:00:42;;;;;;;14.95;4.38;;;;;;;;;;5091606;28;20032;-66
2022/05/14 00:03:08;;;;;;;10.88;4.07;;;;;;;;;;5093802;28;20044;-67
2022/05/14 00:05:34;;;;;;;10.80;3.92;;;;;;;;;;5094285;28;20047;-67
2022/05/14 00:08:00;;;;;;;19.45;5.22;;;;;;;;;;5091546;28;20047;-67
2022/05/14 00:10:27;;;;;;;12.38;5.50;;;;;;;;;;5094010;28;20040;-67
2022/05/14 00:13:06;;;;;;;9.30;3.75;;;;;;;;;;5092425;28;20102;-67
2022/05/14 00:15:37;;;;;;;10.98;4.15;;;;;;;;;;5093496;28;20478;-68
2022/05/14 00:18:04;;;;;;;9.90;4.28;;;;;;;;;;5094301;28;20046;-67
2022/05/14 00:20:31;;;;;;;10.48;4.45;;;;;;;;;;5094551;28;20084;-68
2022/05/14 00:22:57;;;;;;;15.88;4.47;;;;;;;;;;5094152;28;20522;-68
2022/05/14 00:25:23;;;;;;;9.15;4.18;;;;;;;;;;5094240;28;20075;-69
2022/05/14 00:27:49;;;;;;;13.55;4.53;;;;;;;;;;5094148;28;20058;-67
2022/05/14 00:30:16;;;;;;;9.15;4.03;;;;;;;;;;5093626;28;20114;-68
2022/05/14 00:32:42;;;;;;;9.23;4.38;;;;;;;;;;5094350;28;20402;-68
2022/05/14 00:35:09;;;;;;;12.77;4.57;;;;;;;;;;5094203;28;20122;-68
2022/05/14 00:37:36;;;;;;;11.07;4.72;;;;;;;;;;5093377;28;20054;-68
2022/05/14 00:40:04;;;;;;;9.80;4.38;;;;;;;;;;5093858;28;20067;-67
2022/05/14 00:42:31;;;;;;;12.73;5.00;;;;;;;;;;5093683;28;20090;-68
2022/05/14 00:44:58;;;;;;;10.48;4.43;;;;;;;;;;5094075;28;20090;-68
2022/05/14 00:47:24;;;;;;;10.90;4.80;;;;;;;;;;5093912;28;20040;-68
2022/05/14 00:49:50;;;;;;;9.90;4.15;;;;;;;;;;5094063;28;20123;-67
2022/05/14 00:52:18;;;;;;;9.38;4.10;;;;;;;;;;5093987;28;20106;-68
2022/05/14 00:55:10;;;;;;;15.47;5.03;;;;;;;;;;5093530;28;20533;-68
2022/05/14 00:57:38;;;;;;;9.00;4.07;;;;;;;;;;5091142;28;20130;-68
2022/05/14 01:00:06;;;;;;;8.13;4.28;;;;;;;;;;5092093;28;20177;-68
2022/05/14 01:02:32;;;;;;;13.30;4.60;;;;;;;;;;5092933;28;20051;-67
2022/05/14 01:04:59;;;;;;;12.32;4.43;;;;;;;;;;5092938;28;20035;-67
2022/05/14 01:07:25;;;;;;;9.18;4.07;;;;;;;;;;5091502;28;20040;-67
2022/05/14 01:09:57;;;;;;;11.30;4.43;;;;;;;;;;5093231;28;20048;-67
2022/05/14 01:12:24;;;;;;;11.13;5.05;;;;;;;;;;5093138;28;20137;-67
2022/05/14 01:14:50;;;;;;;15.90;4.68;;;;;;;;;;5093041;28;20043;-68
2022/05/14 01:17:16;;;;;;;10.75;4.10;;;;;;;;;;5092962;28;20072;-68
2022/05/14 01:19:42;;;;;;;12.10;4.78;;;;;;;;;;5092733;28;20098;-67
2022/05/14 01:22:11;;;;;;;9.85;4.13;;;;;;;;;;5092911;28;20044;-67
2022/05/14 01:27:23;;;;;;;10.48;4.38;;;;;;;;;;5092867;28;20076;-66
2022/05/14 01:29:49;;;;;;;11.10;4.47;;;;;;;;;;5092753;28;20087;-67
2022/05/14 01:32:15;;;;;;;10.82;4.05;;;;;;;;;;5092315;28;20552;-68
2022/05/14 01:34:41;;;;;;;11.18;3.97;;;;;;;;;;5092305;28;21235;-68
2022/05/14 01:37:10;;;;;;;8.23;3.70;;;;;;;;;;5092541;28;20530;-68
2022/05/14 01:39:36;;;;;;;9.20;3.67;;;;;;;;;;5092381;28;20491;-68
2022/05/14 01:42:02;;;;;;;8.80;4.22;;;;;;;;;;5092655;28;20123;-67
2022/05/14 01:44:28;;;;;;;14.75;4.28;;;;;;;;;;5092675;28;20113;-68
2022/05/14 01:46:54;;;;;;;14.23;4.47;;;;;;;;;;5092625;28;20486;-68
2022/05/14 01:49:20;;;;;;;10.80;3.70;;;;;;;;;;5092508;28;20418;-68
2022/05/14 01:51:46;;;;;;;13.77;3.88;;;;;;;;;;5096697;28;20088;-68
2022/05/14 01:54:12;;;;;;;11.27;4.32;;;;;;;;;;5096677;28;20063;-68
2022/05/14 01:56:38;;;;;;;14.32;4.65;;;;;;;;;;5096458;28;20047;-68
2022/05/14 01:59:04;;;;;;;19.35;5.10;;;;;;;;;;5096506;28;20040;-68
2022/05/14 02:01:32;;;;;;;8.93;4.15;;;;;;;;;;5096673;28;20059;-69
2022/05/14 02:04:00;;;;;;;13.88;4.10;;;;;;;;;;5096741;28;20044;-68
2022/05/14 02:06:27;;;;;;;9.35;4.43;;;;;;;;;;5096394;28;20048;-68
2022/05/14 02:08:53;;;;;;;12.02;4.05;;;;;;;;;;5096226;28;20044;-69
2022/05/14 02:11:19;;;;;;;12.32;4.43;;;;;;;;;;5096203;28;20044;-67
2022/05/14 02:13:45;;;;;;;11.23;4.40;;;;;;;;;;5096114;28;20419;-68
2022/05/14 02:16:11;;;;;;;9.30;4.40;;;;;;;;;;5095878;28;20040;-68
2022/05/14 02:18:37;;;;;;;13.60;4.57;;;;;;;;;;5096194;28;20040;-68
2022/05/14 02:21:04;;;;;;;12.63;4.25;;;;;;;;;;5096104;28;20116;-68
2022/05/14 02:23:30;;;;;;;11.52;4.35;;;;;;;;;;5096085;28;20036;-68
2022/05/14 02:25:56;;;;;;;15.27;3.95;;;;;;;;;;5095813;28;20499;-68
2022/05/14 02:28:22;;;;;;;23.45;4.72;;;;;;;;;;5096214;28;20048;-68
2022/05/14 02:30:48;;;;;;;8.60;4.32;;;;;;;;;;5095345;28;20056;-67
2022/05/14 02:33:14;;;;;;;10.25;4.20;;;;;;;;;;5095918;28;20052;-67
2022/05/14 02:35:40;;;;;;;10.73;4.55;;;;;;;;;;5095621;28;20127;-68
2022/05/14 02:38:07;;;;;;;12.70;4.60;;;;;;;;;;5095796;28;20387;-68
2022/05/14 02:40:33;;;;;;;10.25;4.07;;;;;;;;;;5096086;28;20044;-67
2022/05/14 02:42:59;;;;;;;12.15;4.30;;;;;;;;;;5094199;28;20044;-67
2022/05/14 02:45:25;;;;;;;13.77;4.68;;;;;;;;;;5095480;28;20399;-68
2022/05/14 02:47:51;;;;;;;15.00;4.47;;;;;;;;;;5095670;28;20044;-67
2022/05/14 02:50:17;;;;;;;13.63;4.53;;;;;;;;;;5095765;28;20044;-67
2022/05/14 02:52:44;;;;;;;11.80;4.57;;;;;;;;;;5095493;28;20040;-68
2022/05/14 02:55:10;;;;;;;16.25;4.70;;;;;;;;;;5095577;28;20040;-67
2022/05/14 02:57:36;;;;;;;16.38;5.30;;;;;;;;;;5095277;28;20048;-67
2022/05/14 03:00:04;;;;;;;17.63;5.38;;;;;;;;;;5095071;28;20097;-68
2022/05/14 03:02:30;;;;;;;15.40;5.05;;;;;;;;;;5094851;28;20048;-67
2022/05/14 03:04:56;;;;;;;14.45;4.95;;;;;;;;;;5095278;28;20085;-67
2022/05/14 03:07:22;;;;;;;19.58;5.38;;;;;;;;;;5095506;28;20050;-68
2022/05/14 03:09:48;;;;;;;14.90;4.82;;;;;;;;;;5095096;28;20507;-69
2022/05/14 03:12:15;;;;;;;20.67;5.80;;;;;;;;;;5095304;28;20044;-68
2022/05/14 03:14:41;;;;;;;18.55;5.43;;;;;;;;;;5094849;28;20036;-68
2022/05/14 03:17:09;;;;;;;12.68;5.05;;;;;;;;;;5094987;28;20040;-68
2022/05/14 03:19:35;;;;;;;21.58;5.85;;;;;;;;;;5095052;28;20051;-69
2022/05/14 03:22:01;;;;;;;35.25;8.70;;;;;;;;;;5094821;28;20159;-69
2022/05/14 03:24:27;;;;;;;31.17;5.88;;;;;;;;;;5094671;28;20146;-68
2022/05/14 03:26:54;;;;;;;17.13;5.45;;;;;;;;;;5094686;28;20048;-68
2022/05/14 03:29:20;;;;;;;15.07;5.40;;;;;;;;;;5095143;28;20044;-68
2022/05/14 03:31:47;;;;;;;18.50;5.22;;;;;;;;;;5094206;28;20464;-68
2022/05/14 03:34:13;;;;;;;18.20;6.22;;;;;;;;;;5094500;28;20048;-68
2022/05/14 03:36:39;;;;;;;17.15;5.32;;;;;;;;;;5094490;28;20036;-68
2022/05/14 03:39:06;;;;;;;18.58;6.50;;;;;;;;;;5094707;28;20123;-68
2022/05/14 03:41:32;;;;;;;13.90;5.35;;;;;;;;;;5094599;28;20066;-68
2022/05/14 03:43:58;;;;;;;46.25;11.18;;;;;;;;;;5094332;28;20402;-68
2022/05/14 03:46:24;;;;;;;20.88;7.50;;;;;;;;;;5094633;28;20082;-68
2022/05/14 03:48:50;;;;;;;16.02;5.72;;;;;;;;;;5094610;28;20040;-69
2022/05/14 03:51:16;;;;;;;36.53;10.52;;;;;;;;;;5094527;28;20177;-69
2022/05/14 03:53:42;;;;;;;17.95;6.10;;;;;;;;;;5094301;28;20126;-69
2022/05/14 03:56:08;;;;;;;19.40;6.28;;;;;;;;;;5094233;28;20110;-69
2022/05/14 03:58:35;;;;;;;12.43;5.25;;;;;;;;;;5093816;28;20449;-68
2022/05/14 04:01:02;;;;;;;20.33;6.43;;;;;;;;;;5094166;28;20079;-69
2022/05/14 04:03:28;;;;;;;18.13;6.20;;;;;;;;;;5094075;28;20119;-69
2022/05/14 04:05:54;;;;;;;15.18;6.55;;;;;;;;;;5093861;28;20368;-69
2022/05/14 04:08:20;;;;;;;19.27;6.70;;;;;;;;;;5094269;28;20081;-69
2022/05/14 04:10:47;;;;;;;17.23;6.53;;;;;;;;;;5093637;28;20044;-69
2022/05/14 04:13:13;;;;;;;17.77;6.60;;;;;;;;;;5092764;28;20498;-69
2022/05/14 04:15:39;;;;;;;18.08;6.78;;;;;;;;;;5093957;28;20086;-68
2022/05/14 04:18:05;;;;;;;18.23;6.47;;;;;;;;;;5093780;28;20425;-69
2022/05/14 04:20:31;;;;;;;20.90;7.47;;;;;;;;;;5094230;28;20054;-69
2022/05/14 04:22:57;;;;;;;16.27;6.90;;;;;;;;;;5093621;28;20044;-69
2022/05/14 04:25:24;;;;;;;18.38;7.03;;;;;;;;;;5093599;28;20068;-69
2022/05/14 04:27:51;;;;;;;17.20;6.85;;;;;;;;;;5093675;28;20040;-68
2022/05/14 04:30:17;;;;;;;17.95;7.22;;;;;;;;;;5093681;28;20414;-68
2022/05/14 04:32:44;;;;;;;41.58;12.50;;;;;;;;;;5093310;28;20051;-69
2022/05/14 04:35:11;;;;;;;34.22;9.85;;;;;;;;;;5093284;28;20533;-69
2022/05/14 04:37:37;;;;;;;17.83;6.60;;;;;;;;;;5093507;28;20036;-69
2022/05/14 04:40:04;;;;;;;30.48;10.27;;;;;;;;;;5093465;28;20044;-68
2022/05/14 04:42:30;;;;;;;16.60;7.60;;;;;;;;;;5093313;28;20036;-68
2022/05/14 04:44:56;;;;;;;25.25;7.68;;;;;;;;;;5093565;28;20437;-68
2022/05/14 04:47:22;;;;;;;13.48;6.22;;;;;;;;;;5093279;28;20044;-68
2022/05/14 04:49:49;;;;;;;20.33;7.05;;;;;;;;;;5093436;28;20427;-68
2022/05/14 04:52:15;;;;;;;23.20;7.07;;;;;;;;;;5092965;28;20445;-68
2022/05/14 04:54:41;;;;;;;16.15;7.13;;;;;;;;;;5092937;28;20063;-68
2022/05/14 04:57:08;;;;;;;16.48;7.63;;;;;;;;;;5092739;28;20486;-69
2022/05/14 04:59:36;;;;;;;20.98;7.00;;;;;;;;;;5092691;28;20040;-68
2022/05/14 05:04:48;;;;;;;22.63;7.20;;;;;;;;;;5090780;28;20497;-69
2022/05/14 05:07:14;;;;;;;46.70;12.93;;;;;;;;;;5092208;28;20047;-68
2022/05/14 05:09:40;;;;;;;14.90;7.07;;;;;;;;;;5092454;28;20048;-69
2022/05/14 05:12:06;;;;;;;21.92;7.57;;;;;;;;;;5092429;28;20119;-69
2022/05/14 05:14:32;;;;;;;17.08;7.10;;;;;;;;;;5092487;28;20387;-69
2022/05/14 05:16:58;;;;;;;20.13;7.47;;;;;;;;;;5092458;28;20048;-69
2022/05/14 05:19:25;;;;;;;18.00;7.35;;;;;;;;;;5092859;28;20124;-68
2022/05/14 05:21:51;;;;;;;20.80;8.00;;;;;;;;;;5092556;28;20051;-69
2022/05/14 05:24:17;;;;;;;17.52;7.72;;;;;;;;;;5092335;28;20044;-69
2022/05/14 05:26:43;;;;;;;18.23;7.25;;;;;;;;;;5092470;28;20044;-69
2022/05/14 05:29:09;;;;;;;22.30;7.90;;;;;;;;;;5092484;28;20187;-69
2022/05/14 05:31:35;;;;;;;27.08;8.75;;;;;;;;;;5092116;28;20145;-69
2022/05/14 05:34:02;;;;;;;16.73;7.10;;;;;;;;;;5092365;28;20067;-69
2022/05/14 05:36:27;;;;;;;23.90;8.63;;;;;;;;;;5092359;28;20036;-69
2022/05/14 05:38:54;;;;;;;20.40;7.80;;;;;;;;;;5092603;28;20047;-69
2022/05/14 05:41:20;;;;;;;23.00;9.88;;;;;;;;;;5090939;28;20044;-69
2022/05/14 05:43:47;;;;;;;21.25;8.77;;;;;;;;;;5092671;28;20062;-69
2022/05/14 05:46:13;;;;;;;17.65;8.50;;;;;;;;;;5093113;28;20098;-69
2022/05/14 05:48:40;;;;;;;20.55;8.93;;;;;;;;;;5092759;28;20083;-69
2022/05/14 05:51:06;;;;;;;20.90;8.50;;;;;;;;;;5092629;28;20048;-69
2022/05/14 05:59:02;;;;;;;19.08;8.02;;;;;;;;;;5092511;28;20048;-69
2022/05/14 06:01:28;;;;;;;21.10;9.18;;;;;;;;;;5092361;28;20051;-69
2022/05/14 06:03:54;;;;;;;14.13;7.63;;;;;;;;;;5092531;28;20463;-70
2022/05/14 06:06:20;;;;;;;21.10;8.80;;;;;;;;;;5092328;28;20043;-69
2022/05/14 06:08:48;;;;;;;24.30;9.02;;;;;;;;;;5092416;28;20047;-68
2022/05/14 06:11:14;;;;;;;22.00;8.25;;;;;;;;;;5093220;28;20047;-69
2022/05/14 06:13:42;;;;;;;26.77;8.98;;;;;;;;;;5092881;28;20425;-69
2022/05/14 06:16:08;;;;;;;21.50;8.93;;;;;;;;;;5093091;28;20048;-69
2022/05/14 06:18:34;;;;;;;26.17;10.30;;;;;;;;;;5092874;28;20475;-69
2022/05/14 06:21:00;;;;;;;30.23;9.30;;;;;;;;;;5092427;28;20039;-69
2022/05/14 06:23:25;;;;;;;29.38;10.30;;;;;;;;;;5092077;28;20048;-69
2022/05/14 06:25:51;;;;;;;29.08;9.95;;;;;;;;;;5092626;28;20199;-70
2022/05/14 06:28:18;;;;;;;28.77;9.05;;;;;;;;;;5092283;28;20376;-69
2022/05/14 06:30:44;;;;;;;24.00;8.57;;;;;;;;;;5092189;28;20056;-69
2022/05/14 06:33:12;;;;;;;26.67;9.55;;;;;;;;;;5092877;28;20048;-69
2022/05/14 06:35:39;;;;;;;24.38;9.10;;;;;;;;;;5092678;28;20048;-69
2022/05/14 06:38:06;;;;;;;28.42;9.23;;;;;;;;;;5096263;28;20502;-69
2022/05/14 06:40:33;;;;;;;23.95;9.20;;;;;;;;;;5096407;28;20044;-69
2022/05/14 06:42:59;;;;;;;24.55;8.70;;;;;;;;;;5095952;28;20035;-69
2022/05/14 06:45:25;;;;;;;23.90;8.82;;;;;;;;;;5096559;28;20079;-69
2022/05/14 06:47:52;;;;;;;25.92;9.13;;;;;;;;;;5096468;28;20054;-70
2022/05/14 06:50:19;;;;;;;26.35;8.88;;;;;;;;;;5095938;28;20127;-69
2022/05/14 06:52:46;;;;;;;28.63;8.88;;;;;;;;;;5096118;28;20085;-69
2022/05/14 06:55:15;;;;;;;32.03;8.73;;;;;;;;;;5096129;28;20048;-69
2022/05/14 06:57:41;;;;;;;20.77;7.20;;;;;;;;;;5095826;28;20498;-70
2022/05/14 07:00:08;;;;;;;24.38;8.10;;;;;;;;;;5095667;28;20036;-70
2022/05/14 07:02:36;;;;;;;28.92;8.43;;;;;;;;;;5095907;28;20123;-69
2022/05/14 07:07:47;;;;;;;21.65;7.97;;;;;;;;;;5095946;28;20387;-69
2022/05/14 07:10:13;;;;;;;23.52;7.28;;;;;;;;;;5094972;28;20076;-69
2022/05/14 07:12:39;;;;;;;36.75;10.68;;;;;;;;;;5095246;28;20086;-70
2022/05/14 07:15:06;;;;;;;25.10;7.88;;;;;;;;;;5095169;28;20044;-69
2022/05/14 07:17:32;;;;;;;24.95;7.78;;;;;;;;;;5095273;28;20083;-69
2022/05/14 07:19:58;;;;;;;24.55;7.40;;;;;;;;;;5094915;28;20055;-69
2022/05/14 07:22:24;;;;;;;26.98;8.32;;;;;;;;;;5090871;28;20036;-70
2022/05/14 07:24:50;;;;;;;29.35;7.65;;;;;;;;;;5075452;28;20127;-70
2022/05/14 07:27:16;;;;;;;30.55;7.57;;;;;;;;;;5075645;28;20056;-70
2022/05/14 07:29:43;;;;;;;31.30;8.70;;;;;;;;;;5075374;28;20037;-70
2022/05/14 07:32:12;;;;;;;20.02;7.32;;;;;;;;;;5075273;28;20097;-69
2022/05/14 07:34:38;;;;;;;26.55;7.70;;;;;;;;;;5075224;28;20040;-70
2022/05/14 07:37:07;;;;;;;25.80;7.00;;;;;;;;;;5075110;28;20036;-69
2022/05/14 07:39:33;;;;;;;;;;;;;;;;;;5075808;28;20056;-69
2022/05/14 07:42:01;;;;;;;20.92;6.65;;;;;;;;;;5075147;28;19925;-69
2022/05/14 07:44:30;;;;;;;24.60;7.70;;;;;;;;;;5075049;28;20044;-69
2022/05/14 07:46:56;;;;;;;22.95;6.70;;;;;;;;;;5075027;28;20056;-69
2022/05/14 07:49:23;;;;;;;25.08;6.65;;;;;;;;;;5075152;28;20049;-68
2022/05/14 07:51:49;;;;;;;20.40;6.25;;;;;;;;;;5077727;28;20043;-68
2022/05/14 07:54:15;;;;;;;27.20;6.72;;;;;;;;;;5095343;28;20104;-69
2022/05/14 07:56:42;;;;;;;21.00;5.55;;;;;;;;;;5095058;28;20040;-69
2022/05/14 07:59:09;;;;;;;21.00;5.32;;;;;;;;;;5095008;28;20052;-68
2022/05/14 08:01:35;;;;;;;24.90;6.20;;;;;;;;;;5094859;28;20047;-68
2022/05/14 08:04:01;;;;;;;23.48;6.68;;;;;;;;;;5094142;28;20489;-69
2022/05/14 08:06:27;;;;;;;15.70;4.88;;;;;;;;;;5094473;28;20051;-68
2022/05/14 08:08:54;;;;;;;19.42;5.70;;;;;;;;;;5094383;28;20148;-68
2022/05/14 08:11:20;;;;;;;21.73;5.43;;;;;;;;;;5093949;28;20044;-68
2022/05/14 08:13:46;;;;;;;27.33;5.63;;;;;;;;;;5094133;28;20044;-69
2022/05/14 08:16:12;;;;;;;22.85;6.10;;;;;;;;;;5094060;28;20075;-68
2022/05/14 08:18:38;;;;;;;22.55;5.57;;;;;;;;;;5093898;28;20071;-69
2022/05/14 08:26:34;;;;;;;20.05;4.70;;;;;;;;;;5093845;28;20044;-69
2022/05/14 08:29:00;;;;;;;25.00;5.30;;;;;;;;;;5093706;28;20051;-69
2022/05/14 08:31:26;;;;;;;34.25;7.97;;;;;;;;;;5093420;28;20059;-69
2022/05/14 08:33:52;;;;;;;16.88;4.40;;;;;;;;;;5093823;28;20052;-70
2022/05/14 08:36:18;;;;;;;26.70;6.10;;;;;;;;;;5093732;28;20040;-69
2022/05/14 08:38:44;;;;;;;24.17;6.30;;;;;;;;;;5093640;28;20036;-69
2022/05/14 08:41:10;;;;;;;21.42;4.78;;;;;;;;;;5093405;28;20040;-71
2022/05/14 08:43:51;;;;;;;23.48;5.05;;;;;;;;;;5093321;28;20056;-68
2022/05/14 08:46:18;;;;;;;21.05;4.72;;;;;;;;;;5093422;28;20467;-71
2022/05/14 08:48:47;;;;;;;17.90;5.10;;;;;;;;;;5093591;28;20067;-70
2022/05/14 08:51:15;;;;;;;20.33;4.60;;;;;;;;;;5093386;28;20449;-70
2022/05/14 08:53:42;;;;;;;22.58;5.40;;;;;;;;;;5093323;28;20399;-70
2022/05/14 08:56:13;;;;;;;18.95;4.72;;;;;;;;;;5091928;28;20055;-69
2022/05/14 08:58:55;;;;;;;22.45;4.78;;;;;;;;;;5093024;28;20048;-69
2022/05/14 09:01:23;;;;;;;16.00;4.72;;;;;;;;;;5093697;28;20039;-67
2022/05/14 09:03:49;;;;;;;16.60;3.87;;;;;;;;;;5093191;28;20044;-68
2022/05/14 09:06:15;;;;;;;17.20;4.63;;;;;;;;;;5091976;28;20112;-66
2022/05/14 09:08:41;;;;;;;20.75;4.18;;;;;;;;;;5092981;28;20040;-68
2022/05/14 09:11:17;;;;;;;17.67;4.18;;;;;;;;;;5092808;28;20398;-66
2022/05/14 09:13:44;;;;;;;19.70;4.40;;;;;;;;;;5093175;28;20048;-67
2022/05/14 09:16:20;;;;;;;19.40;4.50;;;;;;;;;;5093021;28;20406;-67
2022/05/14 09:18:51;;;;;;;16.00;4.35;;;;;;;;;;5093113;28;20132;-66
2022/05/14 09:21:25;;;;;;;14.63;4.47;;;;;;;;;;5092913;28;20044;-68
2022/05/14 09:23:54;;;;;;;23.10;6.25;;;;;;;;;;5092641;28;20051;-67
2022/05/14 09:26:40;;;;;;;18.83;5.15;;;;;;;;;;5089838;28;20036;-68
2022/05/14 09:29:24;;;;;;;23.33;4.82;;;;;;;;;;5092731;28;20044;-67
2022/05/14 09:32:14;;;;;;;21.27;5.78;;;;;;;;;;5092384;28;20103;-67
2022/05/14 09:34:39;;;;;;;20.33;4.45;;;;;;;;;;5087103;28;20414;-67
2022/05/14 09:37:13;;;;;;;19.75;4.75;;;;;;;;;;5092910;28;20150;-67
2022/05/14 09:39:40;;;;;;;16.17;4.38;;;;;;;;;;5091397;28;20077;-67
2022/05/14 09:42:06;;;;;;;19.20;5.03;;;;;;;;;;5092518;28;20390;-67
2022/05/14 09:44:44;;;;;;;30.73;7.47;;;;;;;;;;5091265;28;20612;-67
2022/05/14 09:47:25;;;;;;;18.55;4.63;;;;;;;;;;5092848;28;20088;-67
2022/05/14 09:49:59;;;;;;;21.30;4.30;;;;;;;;;;5092752;28;20050;-67
2022/05/14 09:52:27;;;;;;;28.63;6.75;;;;;;;;;;5092923;28;20177;-69
2022/05/14 09:54:54;;;;;;;16.93;4.43;;;;;;;;;;5092897;28;20429;-67
2022/05/14 09:57:23;;;;;;;16.58;4.10;;;;;;;;;;5092451;28;20372;-67
2022/05/14 09:59:58;;;;;;;26.10;7.43;;;;;;;;;;5091593;28;20056;-67
2022/05/14 10:02:36;;;;;;;14.77;4.22;;;;;;;;;;5092832;28;20040;-68
2022/05/14 10:05:20;;;;;;;21.27;4.30;;;;;;;;;;5092435;28;20094;-69
2022/05/14 10:07:51;;;;;;;15.70;3.95;;;;;;;;;;5092591;28;20135;-67
2022/05/14 10:10:39;;;;;;;16.13;4.47;;;;;;;;;;5092437;28;20529;-68
2022/05/14 10:13:10;;;;;;;18.88;4.45;;;;;;;;;;5096186;28;20079;-70
2022/05/14 10:15:47;;;;;;;17.58;4.53;;;;;;;;;;5097914;28;20040;-72
2022/05/14 10:18:22;;;;;;;18.27;4.10;;;;;;;;;;5096397;28;20048;-68
2022/05/14 10:21:07;;;;;;;17.80;4.45;;;;;;;;;;5096101;28;20036;-66
2022/05/14 10:29:14;;;;;;;17.88;4.72;;;;;;;;;;5096446;28;20056;-72
2022/05/14 10:31:46;;;;;;;17.17;4.32;;;;;;;;;;5095646;28;20400;-76
2022/05/14 10:34:18;;;;;;;19.63;3.85;;;;;;;;;;5094901;28;20054;-68
2022/05/14 10:37:02;;;;;;;15.90;4.25;;;;;;;;;;5095686;28;20515;-68
2022/05/14 10:39:40;;;;;;;17.02;4.40;;;;;;;;;;5095960;28;20040;-69
2022/05/14 10:42:15;;;;;;;19.40;4.50;;;;;;;;;;5095900;28;20128;-67
2022/05/14 10:44:48;;;;;;;18.20;4.80;;;;;;;;;;5095570;28;20479;-68
2022/05/14 10:47:14;;;;;;;23.25;5.65;;;;;;;;;;5095834;28;20044;-68
2022/05/14 10:50:00;;;;;;;15.68;4.50;;;;;;;;;;5095668;28;20068;-68
2022/05/14 10:52:26;;;;;;;16.90;4.03;;;;;;;;;;5095571;28;20047;-67
2022/05/14 10:54:52;;;;;;;16.85;4.05;;;;;;;;;;5095459;28;20051;-67
2022/05/14 10:57:18;;;;;;;16.52;4.60;;;;;;;;;;5095173;28;20044;-66
2022/05/14 10:59:46;;;;;;;21.85;5.10;;;;;;;;;;5095566;28;20049;-70
2022/05/14 11:02:15;;;;;;;20.67;4.70;;;;;;;;;;5095560;28;20445;-68
2022/05/14 11:04:42;;;;;;;17.25;4.97;;;;;;;;;;5095465;28;20054;-69
2022/05/14 11:07:27;;;;;;;17.45;4.88;;;;;;;;;;5095350;28;20048;-69
2022/05/14 11:09:53;;;;;;;17.10;4.10;;;;;;;;;;5095139;28;20518;-69
2022/05/14 11:12:19;;;;;;;14.93;4.05;;;;;;;;;;5095485;28;20066;-68
2022/05/14 11:14:56;;;;;;;20.23;4.07;;;;;;;;;;5095318;28;20508;-67
2022/05/14 11:17:24;;;;;;;20.98;4.25;;;;;;;;;;5094977;28;20552;-66
2022/05/14 11:19:51;;;;;;;15.40;4.47;;;;;;;;;;5095000;28;20048;-68
2022/05/14 11:22:25;;;;;;;19.63;4.63;;;;;;;;;;5094623;28;20210;-68
2022/05/14 11:24:52;;;;;;;19.05;4.32;;;;;;;;;;5095279;28;20073;-68
2022/05/14 11:27:32;;;;;;;16.52;4.57;;;;;;;;;;5095157;28;20414;-67
2022/05/14 11:30:06;;;;;;;16.63;4.40;;;;;;;;;;5094855;28;20089;-67
2022/05/14 11:32:46;;;;;;;18.30;4.40;;;;;;;;;;5094906;28;20052;-69
2022/05/14 11:35:12;;;;;;;17.38;4.10;;;;;;;;;;5094845;28;20039;-68
2022/05/14 11:37:43;;;;;;;13.55;3.58;;;;;;;;;;5095038;28;20040;-67
2022/05/14 11:40:21;;;;;;;20.88;4.05;;;;;;;;;;5094912;28;20052;-69
2022/05/14 11:42:48;;;;;;;15.38;3.75;;;;;;;;;;5094826;28;20044;-69
2022/05/14 11:45:21;;;;;;;13.13;3.63;;;;;;;;;;5094428;28;20075;-68
2022/05/14 11:48:06;;;;;;;17.42;4.28;;;;;;;;;;5094500;28;20059;-67
2022/05/14 11:50:35;;;;;;;17.73;4.22;;;;;;;;;;5094928;28;20048;-68
2022/05/14 11:53:01;;;;;;;19.42;4.03;;;;;;;;;;5093949;28;20036;-68
2022/05/14 11:55:29;;;;;;;21.88;4.25;;;;;;;;;;5092785;28;20044;-68
2022/05/14 11:58:08;;;;;;;15.70;4.22;;;;;;;;;;5094073;28;20036;-68
2022/05/14 12:00:34;;;;;;;16.42;3.97;;;;;;;;;;5089099;28;20043;-67
2022/05/14 12:03:13;;;;;;;14.57;3.67;;;;;;;;;;5094428;28;20044;-68
2022/05/14 12:05:41;;;;;;;18.15;3.47;;;;;;;;;;5094553;28;20079;-69
2022/05/14 12:08:30;;;;;;;13.95;3.80;;;;;;;;;;5094111;28;20044;-68
2022/05/14 12:11:14;;;;;;;16.40;3.97;;;;;;;;;;5093862;28;20043;-68
2022/05/14 12:13:58;;;;;;;16.95;4.00;;;;;;;;;;5093577;28;20487;-68
2022/05/14 12:16:32;;;;;;;26.40;5.05;;;;;;;;;;5093838;28;20080;-69
2022/05/14 12:18:59;;;;;;;17.70;4.47;;;;;;;;;;5093957;28;20090;-69
2022/05/14 12:21:25;;;;;;;13.57;4.00;;;;;;;;;;5094017;28;20050;-68
2022/05/14 12:23:51;;;;;;;24.15;5.55;;;;;;;;;;5093965;28;20392;-68
2022/05/14 12:26:23;;;;;;;11.95;3.63;;;;;;;;;;5093778;28;20113;-68
2022/05/14 12:28:49;;;;;;;15.48;3.75;;;;;;;;;;5093885;28;20101;-68
2022/05/14 12:34:03;;;;;;;14.48;3.70;;;;;;;;;;5093106;28;20044;-67
2022/05/14 12:36:49;;;;;;;18.60;4.78;;;;;;;;;;5093553;28;20040;-68
2022/05/14 12:39:26;;;;;;;16.30;3.80;;;;;;;;;;5093481;28;20051;-68
2022/05/14 12:41:53;;;;;;;17.10;4.25;;;;;;;;;;5093751;28;20052;-67
2022/05/14 12:44:36;;;;;;;17.30;4.25;;;;;;;;;;5093832;28;20115;-67
2022/05/14 12:47:03;;;;;;;16.08;3.88;;;;;;;;;;5093389;28;20043;-68
2022/05/14 12:49:35;;;;;;;11.27;3.13;;;;;;;;;;5093498;28;20055;-68
2022/05/14 12:52:12;;;;;;;10.57;3.53;;;;;;;;;;5093672;28;20044;-68
2022/05/14 12:55:01;;;;;;;16.15;4.18;;;;;;;;;;5093524;28;20493;-67
2022/05/14 12:57:28;;;;;;;13.45;3.70;;;;;;;;;;5092692;28;20106;-68
2022/05/14 12:59:55;;;;;;;14.13;3.88;;;;;;;;;;5093273;28;20048;-68
2022/05/14 13:02:47;;;;;;;24.23;4.82;;;;;;;;;;5092979;28;20130;-67
2022/05/14 13:05:19;;;;;;;20.33;5.60;;;;;;;;;;5092690;28;20048;-68
2022/05/14 13:07:49;;;;;;;13.82;4.32;;;;;;;;;;5093123;28;20487;-67
2022/05/14 13:10:17;;;;;;;42.53;8.27;;;;;;;;;;5093333;28;20044;-68
2022/05/14 13:12:46;;;;;;;22.20;5.80;;;;;;;;;;5093997;28;20044;-67
2022/05/14 13:15:13;;;;;;;17.65;4.10;;;;;;;;;;5093934;28;20050;-68
2022/05/14 13:17:39;;;;;;;21.00;3.97;;;;;;;;;;5094355;28;20047;-67
2022/05/14 13:20:08;;;;;;;17.30;4.20;;;;;;;;;;5093405;28;20078;-68
2022/05/14 13:22:35;;;;;;;15.25;3.83;;;;;;;;;;5093010;28;20080;-68
2022/05/14 13:25:02;;;;;;;14.88;4.28;;;;;;;;;;5090416;28;20375;-68
2022/05/14 13:27:30;;;;;;;15.65;4.38;;;;;;;;;;5082940;28;20051;-68
2022/05/14 13:30:16;;;;;;;15.90;3.80;;;;;;;;;;5073651;28;20043;-67
2022/05/14 13:32:43;;;;;;;20.48;4.65;;;;;;;;;;5072394;28;20056;-68
2022/05/14 13:37:54;;;;;;;16.08;3.90;;;;;;;;;;5092911;28;20131;-67
2022/05/14 13:40:27;;;;;;;14.80;4.13;;;;;;;;;;5091754;28;20475;-68
2022/05/14 13:43:04;;;;;;;16.92;4.13;;;;;;;;;;5092789;28;20044;-66
2022/05/14 13:45:35;;;;;;;17.13;4.55;;;;;;;;;;5081683;28;20040;-67
2022/05/14 13:48:10;;;;;;;20.65;4.28;;;;;;;;;;5076399;28;20045;-67
2022/05/14 13:50:38;;;;;;;20.10;4.57;;;;;;;;;;5076963;28;20048;-67
2022/05/14 13:53:06;;;;;;;15.45;4.55;;;;;;;;;;5076854;28;20419;-67
2022/05/14 13:55:34;;;;;;;15.05;4.10;;;;;;;;;;5076484;28;20049;-68
2022/05/14 13:58:03;;;;;;;17.30;4.22;;;;;;;;;;5076726;28;20156;-67
2022/05/14 14:00:33;;;;;;;14.20;4.18;;;;;;;;;;5084444;28;20596;-66
2022/05/14 14:03:07;;;;;;;21.98;4.93;;;;;;;;;;5096894;28;20047;-67
2022/05/14 14:05:35;;;;;;;18.75;5.20;;;;;;;;;;5096807;28;20051;-67
2022/05/14 14:08:04;;;;;;;18.02;4.47;;;;;;;;;;5106765;28;20040;-67
2022/05/14 14:10:33;;;;;;;17.80;4.32;;;;;;;;;;5093533;28;20044;-68
2022/05/14 14:12:59;;;;;;;14.63;4.25;;;;;;;;;;5083407;28;20509;-67
2022/05/14 14:15:26;;;;;;;13.65;3.70;;;;;;;;;;5088877;28;20132;-67
2022/05/14 14:17:52;;;;;;;17.17;4.18;;;;;;;;;;5096543;28;20127;-67
2022/05/14 14:20:18;;;;;;;15.95;4.93;;;;;;;;;;5096537;28;20044;-67
2022/05/14 14:22:45;;;;;;;20.88;4.55;;;;;;;;;;5095671;28;20100;-67
2022/05/14 14:25:12;;;;;;;19.45;4.40;;;;;;;;;;5094492;28;20036;-67
2022/05/14 14:27:39;;;;;;;13.07;3.80;;;;;;;;;;5075802;28;20090;-67
2022/05/14 14:30:06;;;;;;;19.13;4.93;;;;;;;;;;5075913;28;20071;-66
2022/05/14 14:32:32;;;;;;;26.58;5.57;;;;;;;;;;5089752;28;20052;-68
2022/05/14 14:34:59;;;;;;;20.73;4.88;;;;;;;;;;5096011;28;20040;-67
2022/05/14 14:37:25;;;;;;;14.05;4.00;;;;;;;;;;5093668;28;20475;-68
2022/05/14 14:39:51;;;;;;;15.73;4.45;;;;;;;;;;5096109;28;20097;-66
2022/05/14 14:42:17;;;;;;;16.70;4.38;;;;;;;;;;5090432;28;20052;-66
2022/05/14 14:44:44;;;;;;;22.98;5.60;;;;;;;;;;5075604;28;20040;-67
2022/05/14 14:47:10;;;;;;;17.00;4.28;;;;;;;;;;5075522;28;20048;-66
2022/05/14 14:49:37;;;;;;;25.77;5.72;;;;;;;;;;5076448;28;20121;-67
2022/05/14 14:52:03;;;;;;;15.23;3.80;;;;;;;;;;5094913;28;20040;-67
2022/05/14 14:54:29;;;;;;;13.70;3.67;;;;;;;;;;5075465;28;20044;-67
2022/05/14 14:56:55;;;;;;;19.95;4.68;;;;;;;;;;5074839;28;20063;-66
2022/05/14 14:59:21;;;;;;;18.08;4.55;;;;;;;;;;5077076;28;20044;-67
2022/05/14 15:01:49;;;;;;;15.90;4.13;;;;;;;;;;5075194;28;20047;-66
2022/05/14 15:04:17;;;;;;;19.27;5.65;;;;;;;;;;5085197;28;20411;-67
2022/05/14 15:06:43;;;;;;;24.08;6.47;;;;;;;;;;5095725;28;20047;-67
2022/05/14 15:09:09;;;;;;;17.92;4.22;;;;;;;;;;5094479;28;20515;-68